createdAt,value
2023-03-10T00:01:51.571Z,15.68
2023-03-10T00:04:21.885Z,12.77
2023-03-10T00:06:53.000Z,14.23
2023-03-10T00:09:22.017Z,13.50
2023-03-10T00:11:50.929Z,15.68
2023-03-10T00:14:22.546Z,15.68
2023-03-10T00:16:51.467Z,15.77
2023-03-10T00:19:20.385Z,17.05
2023-03-10T00:21:49.317Z,15.63
2023-03-10T00:24:18.206Z,15.77
2023-03-10T00:26:47.126Z,18.55
2023-03-10T00:29:16.207Z,10.77
2023-03-10T00:31:48.259Z,10.68
2023-03-10T00:34:17.340Z,11.70
2023-03-10T00:36:46.314Z,15.00
2023-03-10T00:39:15.661Z,14.95
2023-03-10T00:41:44.898Z,13.27
2023-03-10T00:44:13.886Z,17.13
2023-03-10T00:46:42.921Z,13.05
2023-03-10T00:49:19.235Z,12.68
2023-03-10T00:51:48.233Z,14.05
2023-03-10T00:54:17.198Z,11.77
2023-03-10T00:56:46.398Z,11.60
2023-03-10T00:59:15.366Z,14.73
2023-03-10T01:01:44.342Z,14.57
2023-03-10T01:04:19.040Z,13.10
2023-03-10T01:06:48.515Z,17.88
2023-03-10T01:09:18.039Z,14.52
2023-03-10T01:11:47.592Z,17.92
2023-03-10T01:14:18.269Z,13.73
2023-03-10T01:16:47.386Z,14.23
2023-03-10T01:19:18.559Z,15.95
2023-03-10T01:21:50.287Z,12.05
2023-03-10T01:24:19.397Z,10.25
2023-03-10T01:26:48.340Z,14.75
2023-03-10T01:29:17.298Z,14.90
2023-03-10T01:31:46.338Z,19.50
2023-03-10T01:34:19.251Z,14.05
2023-03-10T01:36:56.927Z,14.60
2023-03-10T01:39:26.332Z,14.27
2023-03-10T01:41:55.341Z,14.48
2023-03-10T01:44:24.264Z,13.75
2023-03-10T01:46:56.057Z,13.73
2023-03-10T01:49:37.897Z,14.80
2023-03-10T01:52:13.490Z,16.95
2023-03-10T01:54:51.579Z,16.75
2023-03-10T01:57:25.809Z,14.80
2023-03-10T01:59:59.487Z,13.65
2023-03-10T02:02:34.586Z,13.07
2023-03-10T02:05:05.494Z,14.13
2023-03-10T02:07:37.694Z,10.25
2023-03-10T02:10:08.786Z,10.00
2023-03-10T02:12:38.175Z,9.50
2023-03-10T02:15:11.433Z,16.98
2023-03-10T02:17:41.667Z,10.90
2023-03-10T02:20:26.247Z,13.15
2023-03-10T02:22:57.668Z,11.68
2023-03-10T02:25:38.846Z,10.68
2023-03-10T02:28:09.312Z,12.10
2023-03-10T02:30:42.364Z,15.70
2023-03-10T02:33:15.017Z,16.70
2023-03-10T02:35:43.965Z,15.77
2023-03-10T02:38:16.740Z,13.77
2023-03-10T02:40:49.253Z,12.77
2023-03-10T02:43:27.155Z,15.68
2023-03-10T02:46:05.242Z,13.98
2023-03-10T02:48:40.332Z,10.02
2023-03-10T02:51:20.173Z,13.85
2023-03-10T02:53:49.506Z,15.98
2023-03-10T02:56:19.329Z,8.65
2023-03-10T02:58:51.514Z,14.65
2023-03-10T03:01:21.497Z,12.27
2023-03-10T03:03:50.655Z,12.48
2023-03-10T03:06:19.852Z,11.32
2023-03-10T03:08:49.141Z,11.63
2023-03-10T03:11:20.845Z,13.25
2023-03-10T03:13:51.207Z,11.07
2023-03-10T03:16:20.283Z,10.63
2023-03-10T03:18:53.982Z,17.05
2023-03-10T03:21:25.663Z,16.33
2023-03-10T03:23:56.085Z,16.80
2023-03-10T03:26:28.067Z,17.55
2023-03-10T03:29:03.754Z,13.65
2023-03-10T03:31:36.239Z,19.77
2023-03-10T03:34:11.110Z,12.52
2023-03-10T03:36:40.418Z,11.48
2023-03-10T03:39:11.486Z,14.20
2023-03-10T03:41:42.017Z,15.50
2023-03-10T03:44:13.551Z,15.85
2023-03-10T03:46:43.155Z,13.73
2023-03-10T03:49:12.065Z,16.48
2023-03-10T03:51:41.787Z,14.73
2023-03-10T03:54:11.924Z,11.88
2023-03-10T03:56:42.517Z,14.38
2023-03-10T03:59:15.301Z,9.75
2023-03-10T04:01:44.317Z,12.80
2023-03-10T04:04:13.431Z,11.00
2023-03-10T04:06:42.907Z,14.05
2023-03-10T04:09:13.776Z,11.07
2023-03-10T04:11:43.159Z,9.30
2023-03-10T04:14:12.363Z,11.90
2023-03-10T04:16:42.641Z,12.60
2023-03-10T04:19:11.934Z,9.57
2023-03-10T04:21:44.726Z,10.57
2023-03-10T04:24:15.351Z,17.25
2023-03-10T04:26:44.843Z,9.52
2023-03-10T04:29:14.246Z,9.25
2023-03-10T04:31:55.810Z,12.45
2023-03-10T04:34:35.399Z,13.02
2023-03-10T04:37:05.522Z,13.45
2023-03-10T04:39:35.650Z,12.77
2023-03-10T04:42:05.459Z,14.90
2023-03-10T04:44:35.474Z,10.10
2023-03-10T04:47:08.771Z,13.20
2023-03-10T04:49:39.059Z,14.20
2023-03-10T04:52:12.482Z,11.38
2023-03-10T04:54:41.640Z,18.75
2023-03-10T04:57:11.383Z,13.38
2023-03-10T04:59:43.151Z,17.83
2023-03-10T05:02:13.945Z,24.92
2023-03-10T05:04:43.146Z,51.22
2023-03-10T05:07:12.778Z,41.17
2023-03-10T05:09:48.374Z,14.45
2023-03-10T05:12:17.395Z,15.15
2023-03-10T05:14:46.556Z,13.05
2023-03-10T05:17:16.987Z,18.85
2023-03-10T05:19:46.726Z,21.33
2023-03-10T05:22:16.065Z,12.77
2023-03-10T05:24:45.096Z,11.02
2023-03-10T05:27:15.065Z,18.20
2023-03-10T05:29:46.375Z,9.98
2023-03-10T05:32:22.893Z,12.38
2023-03-10T05:34:52.350Z,11.10
2023-03-10T05:37:21.374Z,15.70
2023-03-10T05:39:50.556Z,17.75
2023-03-10T05:42:22.811Z,10.80
2023-03-10T05:44:52.547Z,39.72
2023-03-10T05:47:23.052Z,45.80
2023-03-10T05:49:52.082Z,18.60
2023-03-10T05:52:21.315Z,12.20
2023-03-10T05:54:50.895Z,15.77
2023-03-10T05:57:20.337Z,15.93
2023-03-10T05:59:49.305Z,12.38
2023-03-10T06:02:18.623Z,14.65
2023-03-10T06:04:48.959Z,9.93
2023-03-10T06:07:17.936Z,11.68
2023-03-10T06:09:46.992Z,11.15
2023-03-10T06:12:15.945Z,14.27
2023-03-10T06:14:44.924Z,12.60
2023-03-10T06:17:14.051Z,11.60
2023-03-10T06:19:43.254Z,21.98
2023-03-10T06:22:13.687Z,12.85
2023-03-10T06:24:43.031Z,16.08
2023-03-10T06:27:12.080Z,21.45
2023-03-10T06:29:41.038Z,13.25
2023-03-10T06:32:10.063Z,11.18
2023-03-10T06:34:39.037Z,16.50
2023-03-10T06:37:08.128Z,9.13
2023-03-10T06:39:40.585Z,12.38
2023-03-10T06:42:09.945Z,14.48
2023-03-10T06:44:39.047Z,9.95
2023-03-10T06:47:08.413Z,11.82
2023-03-10T06:49:38.629Z,10.15
2023-03-10T06:52:08.124Z,10.43
2023-03-10T06:54:37.933Z,9.02
2023-03-10T06:57:08.512Z,11.27
2023-03-10T06:59:37.471Z,11.20
2023-03-10T07:02:07.142Z,14.48
2023-03-10T07:04:36.113Z,17.92
2023-03-10T07:07:05.138Z,12.50
2023-03-10T07:09:34.120Z,11.55
2023-03-10T07:12:03.125Z,10.20
2023-03-10T07:14:33.477Z,11.35
2023-03-10T07:17:03.397Z,11.25
2023-03-10T07:19:32.683Z,16.73
2023-03-10T07:22:01.592Z,11.38
2023-03-10T07:24:30.493Z,11.30
2023-03-10T07:27:01.274Z,9.45
2023-03-10T07:29:30.625Z,10.43
2023-03-10T07:32:00.959Z,6.97
2023-03-10T07:34:29.895Z,8.30
2023-03-10T07:36:58.959Z,10.43
2023-03-10T07:39:28.016Z,8.98
2023-03-10T07:41:56.878Z,5.75
2023-03-10T07:44:25.767Z,8.13
2023-03-10T07:46:54.861Z,10.77
2023-03-10T07:49:25.158Z,7.72
2023-03-10T07:51:54.052Z,11.48
2023-03-10T07:54:23.016Z,6.20
2023-03-10T07:56:51.915Z,8.57
2023-03-10T07:59:20.897Z,8.68
2023-03-10T08:01:50.275Z,9.27
2023-03-10T08:04:19.513Z,9.38
2023-03-10T08:06:49.853Z,10.63
2023-03-10T08:09:19.078Z,7.70
2023-03-10T08:11:48.059Z,14.30
2023-03-10T08:14:20.904Z,11.75
2023-03-10T08:16:49.966Z,11.70
2023-03-10T08:19:19.593Z,6.85
2023-03-10T08:21:49.891Z,7.63
2023-03-10T08:24:18.763Z,8.52
2023-03-10T08:26:47.690Z,10.02
2023-03-10T08:29:16.833Z,14.30
2023-03-10T08:31:45.961Z,8.30
2023-03-10T08:34:15.613Z,7.88
2023-03-10T08:36:45.331Z,10.23
2023-03-10T08:39:15.664Z,15.75
2023-03-10T08:41:49.182Z,11.98
2023-03-10T08:44:20.305Z,12.70
2023-03-10T08:46:51.152Z,13.27
2023-03-10T08:49:22.399Z,11.77
2023-03-10T08:51:51.376Z,12.27
2023-03-10T08:54:23.886Z,11.82
2023-03-10T08:56:52.888Z,18.98
2023-03-10T08:59:22.058Z,10.85
2023-03-10T09:01:51.047Z,10.27
2023-03-10T09:04:20.189Z,11.07
2023-03-10T09:06:49.133Z,10.57
2023-03-10T09:09:18.092Z,15.35
2023-03-10T09:11:48.364Z,11.35
2023-03-10T09:14:17.669Z,10.95
2023-03-10T09:16:46.743Z,9.55
2023-03-10T09:19:15.763Z,12.60
2023-03-10T09:21:44.825Z,13.52
2023-03-10T09:24:13.767Z,21.20
2023-03-10T09:26:44.704Z,14.93
2023-03-10T09:29:15.513Z,10.73
2023-03-10T09:31:45.388Z,13.70
2023-03-10T09:34:14.326Z,17.33
2023-03-10T09:36:43.597Z,13.32
2023-03-10T09:39:12.496Z,8.38
2023-03-10T09:42:36.430Z,13.15
2023-03-10T09:45:27.895Z,11.80
2023-03-10T09:48:21.035Z,14.23
2023-03-10T09:50:52.476Z,10.70
2023-03-10T09:53:45.309Z,9.13
2023-03-10T09:56:18.137Z,9.55
2023-03-10T09:58:51.126Z,10.30
2023-03-10T10:01:26.286Z,9.10
2023-03-10T10:04:00.666Z,10.85
2023-03-10T10:06:34.450Z,11.52
2023-03-10T10:09:07.175Z,10.45
2023-03-10T10:11:37.686Z,12.70
2023-03-10T10:14:28.593Z,11.98
2023-03-10T10:17:09.985Z,14.70
2023-03-10T10:19:41.165Z,8.90
2023-03-10T10:22:20.534Z,11.25
2023-03-10T10:25:13.506Z,14.90
2023-03-10T10:27:45.412Z,12.65
2023-03-10T10:30:31.681Z,10.13
2023-03-10T10:33:04.797Z,9.00
2023-03-10T10:35:36.471Z,7.90
2023-03-10T10:38:08.090Z,12.35
2023-03-10T10:40:50.103Z,9.75
2023-03-10T10:43:21.215Z,9.00
2023-03-10T10:45:55.857Z,14.57
2023-03-10T10:48:41.775Z,9.20
2023-03-10T10:51:27.261Z,10.82
2023-03-10T10:53:56.659Z,11.07
2023-03-10T10:56:25.834Z,14.27
2023-03-10T10:59:08.181Z,11.00
2023-03-10T11:01:54.508Z,11.13
2023-03-10T11:04:28.017Z,10.82
2023-03-10T11:07:13.164Z,7.60
2023-03-10T11:09:42.471Z,8.95
2023-03-10T11:12:22.045Z,13.05
2023-03-10T11:15:11.610Z,7.88
2023-03-10T11:17:48.571Z,8.80
2023-03-10T11:20:29.792Z,10.80
2023-03-10T11:23:12.974Z,7.70
2023-03-10T11:25:47.938Z,7.95
2023-03-10T11:28:38.045Z,10.35
2023-03-10T11:31:22.551Z,9.10
2023-03-10T11:34:01.531Z,8.07
2023-03-10T11:36:55.010Z,5.97
2023-03-10T11:39:35.194Z,9.77
2023-03-10T11:42:12.207Z,10.57
2023-03-10T11:44:51.857Z,11.70
2023-03-10T11:47:33.223Z,7.40
2023-03-10T11:50:16.021Z,9.18
2023-03-10T11:52:47.831Z,8.65
2023-03-10T11:55:21.528Z,7.15
2023-03-10T11:57:54.300Z,6.63
2023-03-10T12:00:33.229Z,5.18
2023-03-10T12:03:13.726Z,8.98
2023-03-10T12:05:52.008Z,7.90
2023-03-10T12:08:26.255Z,6.13
2023-03-10T12:10:57.120Z,5.32
2023-03-10T12:13:29.053Z,8.63
2023-03-10T12:16:02.128Z,6.72
2023-03-10T12:18:31.209Z,5.68
2023-03-10T12:21:19.907Z,6.65
2023-03-10T12:23:52.773Z,5.93
2023-03-10T12:27:03.386Z,11.88
2023-03-10T12:29:43.710Z,6.75
2023-03-10T12:32:47.401Z,8.13
2023-03-10T12:35:36.669Z,5.15
2023-03-10T12:38:41.027Z,6.25
2023-03-10T12:41:12.071Z,4.30
2023-03-10T12:44:25.214Z,9.23
2023-03-10T12:47:00.902Z,4.72
2023-03-10T12:49:36.935Z,5.63
2023-03-10T12:52:23.377Z,7.63
2023-03-10T12:55:15.358Z,6.45
2023-03-10T12:57:59.349Z,5.80
2023-03-10T13:00:40.416Z,7.60
2023-03-10T13:03:25.989Z,6.90
2023-03-10T13:06:07.321Z,8.48
2023-03-10T13:08:44.801Z,4.47
2023-03-10T13:14:03.022Z,9.15
2023-03-10T13:16:33.576Z,8.55
2023-03-10T13:19:03.758Z,5.68
2023-03-10T13:21:35.762Z,7.93
2023-03-10T13:24:24.454Z,5.32
2023-03-10T13:27:05.888Z,4.75
2023-03-10T13:29:36.389Z,6.70
2023-03-10T13:32:06.575Z,6.22
2023-03-10T13:34:36.842Z,8.60
2023-03-10T13:37:08.354Z,7.55
2023-03-10T13:39:37.570Z,7.10
2023-03-10T13:42:28.428Z,5.15
2023-03-10T13:45:14.331Z,8.50
2023-03-10T13:47:44.441Z,6.25
2023-03-10T13:50:17.158Z,7.20
2023-03-10T13:52:57.265Z,5.30
2023-03-10T13:55:26.868Z,9.15
2023-03-10T13:57:56.862Z,6.22
2023-03-10T14:00:28.574Z,5.95
2023-03-10T14:02:58.181Z,6.25
2023-03-10T14:05:46.116Z,6.65
2023-03-10T14:08:27.872Z,7.40
2023-03-10T14:11:33.436Z,6.47
2023-03-10T14:14:05.337Z,9.07
2023-03-10T14:16:54.182Z,8.55
2023-03-10T14:19:50.044Z,8.10
2023-03-10T14:22:35.366Z,6.25
2023-03-10T14:25:10.845Z,6.93
2023-03-10T14:27:43.136Z,7.00
2023-03-10T14:30:22.108Z,5.90
2023-03-10T14:32:52.736Z,6.40
2023-03-10T14:35:24.175Z,7.57
2023-03-10T14:37:54.367Z,6.95
2023-03-10T14:40:28.302Z,6.13
2023-03-10T14:43:02.403Z,5.65
2023-03-10T14:45:34.298Z,5.15
2023-03-10T14:48:13.032Z,7.57
2023-03-10T14:50:42.141Z,6.13
2023-03-10T14:53:13.767Z,6.32
2023-03-10T14:55:44.758Z,6.57
2023-03-10T14:58:17.853Z,6.82
2023-03-10T15:00:46.851Z,11.07
2023-03-10T15:03:17.392Z,5.20
2023-03-10T15:05:48.978Z,6.57
2023-03-10T15:08:18.867Z,8.57
2023-03-10T15:10:51.018Z,5.80
2023-03-10T15:13:25.331Z,6.03
2023-03-10T15:15:54.388Z,9.13
2023-03-10T15:18:27.296Z,7.35
2023-03-10T15:20:59.032Z,6.63
2023-03-10T15:23:29.246Z,7.50
2023-03-10T15:26:02.869Z,7.13
2023-03-10T15:28:31.935Z,12.75
2023-03-10T15:31:00.837Z,9.82
2023-03-10T15:33:31.274Z,10.38
2023-03-10T15:36:00.885Z,6.30
2023-03-10T15:38:29.977Z,8.77
2023-03-10T15:40:59.089Z,3.95
2023-03-10T15:43:28.137Z,5.00
2023-03-10T15:45:57.116Z,8.68
2023-03-10T15:48:26.257Z,5.38
2023-03-10T15:50:56.503Z,14.05
2023-03-10T15:53:25.638Z,10.60
2023-03-10T15:55:56.287Z,10.05
2023-03-10T15:58:25.165Z,12.65
2023-03-10T16:00:54.037Z,13.35
2023-03-10T16:03:22.992Z,8.10
2023-03-10T16:05:51.971Z,9.95
2023-03-10T16:08:22.303Z,10.55
2023-03-10T16:10:55.464Z,10.93
2023-03-10T16:13:25.033Z,10.52
2023-03-10T16:15:54.123Z,5.05
2023-03-10T16:18:23.167Z,3.58
2023-03-10T16:20:59.558Z,7.28
2023-03-10T16:23:33.910Z,8.65
2023-03-10T16:26:09.487Z,11.10
2023-03-10T16:28:41.933Z,13.68
2023-03-10T16:31:13.085Z,16.75
2023-03-10T16:33:42.820Z,18.20
2023-03-10T16:36:17.073Z,15.90
2023-03-10T16:38:48.234Z,17.00
2023-03-10T16:41:17.819Z,14.13
2023-03-10T16:43:47.456Z,19.48
2023-03-10T16:46:20.412Z,14.13
2023-03-10T16:48:49.977Z,14.43
2023-03-10T16:51:23.737Z,17.25
2023-03-10T16:53:55.938Z,15.60
2023-03-10T16:56:26.204Z,11.23
2023-03-10T16:58:55.922Z,10.90
2023-03-10T17:01:25.766Z,14.70
2023-03-10T17:03:55.533Z,13.63
2023-03-10T17:06:28.561Z,14.57
2023-03-10T17:09:00.818Z,17.48
2023-03-10T17:11:33.130Z,17.40
2023-03-10T17:14:06.149Z,13.23
2023-03-10T17:16:39.630Z,13.15
2023-03-10T17:19:12.585Z,12.35
2023-03-10T17:21:45.898Z,17.08
2023-03-10T17:24:19.568Z,15.60
2023-03-10T17:26:48.806Z,14.85
2023-03-10T17:29:18.039Z,16.13
2023-03-10T17:31:50.288Z,18.48
2023-03-10T17:34:20.457Z,13.85
2023-03-10T17:36:51.471Z,22.38
2023-03-10T17:39:24.038Z,15.52
2023-03-10T17:41:54.415Z,9.70
2023-03-10T17:44:23.393Z,10.55
2023-03-10T17:46:55.908Z,14.30
2023-03-10T17:49:25.126Z,13.23
2023-03-10T17:51:54.185Z,12.32
2023-03-10T17:54:24.537Z,12.13
2023-03-10T17:56:53.562Z,17.65
2023-03-10T17:59:24.586Z,13.15
2023-03-10T18:01:53.571Z,11.27
2023-03-10T18:04:22.775Z,15.45
2023-03-10T18:06:51.850Z,11.23
2023-03-10T18:09:20.937Z,16.75
2023-03-10T18:11:51.465Z,12.63
2023-03-10T18:14:20.388Z,11.52
2023-03-10T18:16:49.393Z,18.00
2023-03-10T18:19:21.455Z,12.48
2023-03-10T18:21:52.470Z,9.35
2023-03-10T18:24:22.425Z,14.40
2023-03-10T18:26:56.193Z,13.80
2023-03-10T18:29:25.161Z,13.85
2023-03-10T18:32:02.309Z,16.50
2023-03-10T18:34:31.451Z,19.27
2023-03-10T18:37:02.420Z,18.10
2023-03-10T18:39:31.517Z,16.83
2023-03-10T18:42:01.974Z,16.02
2023-03-10T18:44:31.001Z,19.27
2023-03-10T18:47:02.387Z,16.77
2023-03-10T18:49:31.406Z,26.23
2023-03-10T18:52:00.723Z,16.75
2023-03-10T18:54:32.741Z,16.90
2023-03-10T18:57:03.394Z,16.38
2023-03-10T18:59:32.386Z,23.83
2023-03-10T19:02:01.541Z,17.40
2023-03-10T19:04:30.524Z,21.27
2023-03-10T19:06:59.574Z,21.10
2023-03-10T19:09:28.619Z,30.02
2023-03-10T19:11:59.760Z,34.30
2023-03-10T19:14:30.245Z,29.15
2023-03-10T19:16:59.343Z,30.25
2023-03-10T19:19:29.307Z,28.88
2023-03-10T19:21:58.277Z,20.48
2023-03-10T19:24:27.351Z,22.90
2023-03-10T19:26:56.755Z,15.73
2023-03-10T19:29:25.862Z,20.17
2023-03-10T19:31:56.418Z,15.90
2023-03-10T19:34:25.636Z,12.73
2023-03-10T19:36:54.623Z,16.38
2023-03-10T19:39:28.373Z,18.23
2023-03-10T19:41:57.324Z,21.73
2023-03-10T19:44:27.396Z,20.80
2023-03-10T19:46:57.763Z,25.02
2023-03-10T19:49:26.866Z,17.92
2023-03-10T19:51:55.864Z,19.10
2023-03-10T19:54:24.936Z,16.13
2023-03-10T19:56:53.973Z,17.27
2023-03-10T19:59:25.042Z,22.05
2023-03-10T20:01:54.418Z,20.13
2023-03-10T20:04:24.900Z,19.83
2023-03-10T20:06:53.953Z,20.23
2023-03-10T20:09:25.819Z,21.77
2023-03-10T20:11:54.849Z,24.58
2023-03-10T20:14:24.078Z,22.55
2023-03-10T20:16:53.211Z,21.63
2023-03-10T20:19:22.954Z,18.05
2023-03-10T20:21:53.308Z,16.65
2023-03-10T20:24:22.322Z,20.02
2023-03-10T20:26:51.248Z,18.75
2023-03-10T20:29:20.807Z,19.83
2023-03-10T20:31:50.195Z,15.10
2023-03-10T20:34:22.115Z,17.65
2023-03-10T20:36:52.758Z,16.10
2023-03-10T20:39:22.108Z,17.08
2023-03-10T20:41:51.639Z,21.52
2023-03-10T20:44:20.584Z,15.10
2023-03-10T20:46:49.750Z,24.88
2023-03-10T20:49:18.645Z,17.58
2023-03-10T20:51:47.584Z,16.25
2023-03-10T20:54:18.253Z,16.92
2023-03-10T20:56:47.149Z,15.55
2023-03-10T20:59:16.175Z,15.77
2023-03-10T21:01:45.130Z,19.63
2023-03-10T21:04:15.009Z,22.58
2023-03-10T21:06:43.985Z,19.65
2023-03-10T21:09:12.933Z,20.02
2023-03-10T21:11:43.358Z,16.52
2023-03-10T21:14:12.490Z,18.80
2023-03-10T21:16:42.175Z,12.40
2023-03-10T21:19:14.229Z,17.45
2023-03-10T21:21:43.567Z,16.67
2023-03-10T21:24:14.258Z,22.42
2023-03-10T21:26:46.601Z,22.17
2023-03-10T21:29:15.910Z,26.02
2023-03-10T21:31:44.892Z,18.10
2023-03-10T21:34:14.073Z,21.70
2023-03-10T21:36:46.512Z,16.00
2023-03-10T21:39:15.431Z,23.08
2023-03-10T21:41:46.004Z,24.98
2023-03-10T21:44:14.997Z,23.88
2023-03-10T21:46:46.255Z,25.85
2023-03-10T21:49:15.779Z,21.73
2023-03-10T21:51:44.737Z,22.27
2023-03-10T21:54:13.736Z,23.65
2023-03-10T21:56:42.683Z,21.33
2023-03-10T21:59:13.434Z,24.17
2023-03-10T22:01:42.367Z,23.88
2023-03-10T22:04:13.612Z,25.00
2023-03-10T22:06:42.665Z,18.60
2023-03-10T22:09:11.619Z,20.58
2023-03-10T22:11:40.546Z,24.60
2023-03-10T22:14:09.474Z,26.38
2023-03-10T22:16:39.822Z,27.17
2023-03-10T22:19:08.782Z,26.55
2023-03-10T22:21:37.685Z,26.00
2023-03-10T22:24:07.085Z,26.33
2023-03-10T22:26:36.093Z,25.52
2023-03-10T22:29:04.990Z,24.73
2023-03-10T22:31:33.962Z,24.70
2023-03-10T22:34:05.469Z,22.13
2023-03-10T22:36:34.748Z,24.10
2023-03-10T22:39:03.889Z,25.08
2023-03-10T22:41:38.379Z,26.00
2023-03-10T22:44:07.551Z,23.73
2023-03-10T22:46:36.799Z,20.52
2023-03-10T22:49:07.219Z,20.13
2023-03-10T22:51:36.268Z,22.58
2023-03-10T22:54:05.430Z,20.83
2023-03-10T22:56:34.465Z,20.25
2023-03-10T22:59:03.973Z,19.60
2023-03-10T23:01:33.182Z,21.92
2023-03-10T23:04:02.212Z,23.25
2023-03-10T23:06:35.499Z,21.23
2023-03-10T23:09:06.166Z,18.83
2023-03-10T23:11:35.622Z,19.15
2023-03-10T23:14:04.642Z,19.13
2023-03-10T23:16:36.566Z,19.23
2023-03-10T23:19:08.457Z,20.52
2023-03-10T23:21:39.248Z,16.23
2023-03-10T23:24:08.623Z,19.65
2023-03-10T23:26:37.708Z,19.95
2023-03-10T23:29:07.504Z,20.67
2023-03-10T23:31:36.800Z,24.25
2023-03-10T23:34:05.848Z,20.67
2023-03-10T23:36:39.070Z,20.23
2023-03-10T23:39:11.166Z,20.95
2023-03-10T23:41:40.285Z,25.77
2023-03-10T23:44:09.336Z,20.38
2023-03-10T23:46:38.270Z,20.45
2023-03-10T23:49:07.189Z,19.63
2023-03-10T23:51:36.160Z,17.20
2023-03-10T23:54:09.332Z,20.00
2023-03-10T23:56:38.441Z,17.70
2023-03-10T23:59:07.350Z,20.52
